Terminal Aerodrome Forecast
Issued by NWS

Current Version | Previous Version | Text Only | Print | Product List | Glossary Off
Versions: 1 2 3 4 5 6 7 8 9 10 11 12 13 14 15 16 17 18 19 20 21 22 23 24 25 26 27 28 29 30 31 32

000
FTUS41 KRLX 281139
TAFCKB
TAF
KCKB 281139Z 2812/2912 00000KT 6SM SHRA VCTS SCT030 OVC050CB
     FM281400 22005KT P6SM VCSH OVC040
     FM281800 25004KT 5SM BR VCTS BKN035CB
     FM282000 25004KT 6SM TSRA BR BKN035CB
     FM290000 00000KT P6SM +TSRA OVC020CB=

USA.gov is the U.S. government's official web portal to all federal, state and local government web resources and services.